ADDS METAR Data INFO
IDs: Format: Raw Decoded Include TAF

Data at: 0118 UTC 19 Nov 2017

METAR for:KHAO (Hamilton/Butler Cnty, OH, US)
Text:KHAO 190053Z AUTO 31013G21KT 10SM BKN013 OVC021 08/07 A2943 RMK AO2 PK WND 30028/0004 SLP964 T00830067
Temperature: 8.3°C ( 47°F)
Dewpoint: 6.7°C ( 44°F) [RH = 90%]
Pressure (altimeter):29.43 inches Hg ( 996.7 mb) [Sea level pressure: 996.4 mb]
Winds:from the NW (310 degrees) at 15 MPH (13 knots; 6.7 m/s) gusting to 24 MPH (21 knots; 10.8 m/s)
Visibility:10 or more sm (16+ km)
Ceiling:1300 feet AGL
Clouds: broken clouds at 1300 feet AGL, overcast cloud deck at 2100 feet AGL
QC Flag:automated observation with no human augmentation